createdAt,value
2023-03-02T00:00:52.260Z,0
2023-03-02T00:02:08.548Z,0
2023-03-02T00:04:40.165Z,0
2023-03-02T00:05:56.464Z,0
2023-03-02T00:07:12.744Z,0
2023-03-02T00:08:29.042Z,0
2023-03-02T00:09:45.339Z,0
2023-03-02T00:12:17.921Z,0
2023-03-02T00:13:33.248Z,0
2023-03-02T00:14:48.556Z,0
2023-03-02T00:16:04.859Z,0
2023-03-02T00:17:21.141Z,0
2023-03-02T00:18:37.435Z,0
2023-03-02T00:19:53.732Z,0
2023-03-02T00:21:10.029Z,0
2023-03-02T00:22:26.335Z,0
2023-03-02T00:23:42.627Z,0
2023-03-02T00:26:14.240Z,0
2023-03-02T00:27:29.558Z,0
2023-03-02T00:28:45.849Z,0
2023-03-02T00:30:02.141Z,0
2023-03-02T00:31:18.430Z,0
2023-03-02T00:32:34.727Z,0
2023-03-02T00:33:51.032Z,0
2023-03-02T00:35:07.319Z,0
2023-03-02T00:36:23.616Z,0
2023-03-02T00:38:56.208Z,0
2023-03-02T00:40:11.517Z,0
2023-03-02T00:42:43.132Z,0
2023-03-02T00:43:59.421Z,0
2023-03-02T00:45:15.731Z,0
2023-03-02T00:46:32.010Z,0
2023-03-02T00:47:48.310Z,0
2023-03-02T00:49:04.607Z,0
2023-03-02T00:50:20.911Z,0
2023-03-02T00:51:37.190Z,0
2023-03-02T00:52:53.488Z,0
2023-03-02T00:54:09.792Z,0
2023-03-02T00:55:25.113Z,0
2023-03-02T00:56:40.412Z,0
2023-03-02T00:57:56.711Z,0
2023-03-02T00:59:13.000Z,0
2023-03-02T01:00:29.309Z,0
2023-03-02T01:01:45.594Z,0
2023-03-02T01:03:01.000Z,0
2023-03-02T01:04:18.185Z,0
2023-03-02T01:05:34.474Z,0
2023-03-02T01:08:07.070Z,0
2023-03-02T01:09:23.362Z,0
2023-03-02T01:10:39.657Z,0
2023-03-02T01:11:55.966Z,0
2023-03-02T01:13:11.270Z,0
2023-03-02T01:14:27.553Z,0
2023-03-02T01:15:43.858Z,0
2023-03-02T01:17:00.157Z,0
2023-03-02T01:18:16.457Z,0
2023-03-02T01:19:32.748Z,0
2023-03-02T01:20:49.032Z,0
2023-03-02T01:22:05.336Z,0
2023-03-02T01:23:20.652Z,0
2023-03-02T01:24:35.963Z,0
2023-03-02T01:25:52.254Z,0
2023-03-02T01:27:08.544Z,0
2023-03-02T01:28:24.838Z,0
2023-03-02T01:29:41.145Z,0
2023-03-02T01:30:57.438Z,0
2023-03-02T01:32:13.730Z,0
2023-03-02T01:33:30.027Z,0
2023-03-02T01:34:46.319Z,0
2023-03-02T01:36:02.607Z,0
2023-03-02T01:37:18.918Z,0
2023-03-02T01:38:35.200Z,0
2023-03-02T01:39:51.506Z,0
2023-03-02T01:41:06.807Z,0
2023-03-02T01:42:23.107Z,0
2023-03-02T01:43:39.400Z,0
2023-03-02T01:44:55.692Z,0
2023-03-02T01:46:12.004Z,0
2023-03-02T01:47:28.293Z,0
2023-03-02T01:48:44.590Z,0
2023-03-02T01:50:00.883Z,0
2023-03-02T01:51:17.178Z,0
2023-03-02T01:52:33.475Z,0
2023-03-02T01:53:49.768Z,0
2023-03-02T01:55:06.070Z,0
2023-03-02T01:56:22.349Z,0
2023-03-02T01:57:38.770Z,0
2023-03-02T01:58:55.077Z,0
2023-03-02T02:00:11.372Z,0
2023-03-02T02:01:27.667Z,0
2023-03-02T02:02:43.947Z,0
2023-03-02T02:04:00.248Z,0
2023-03-02T02:05:16.551Z,0
2023-03-02T02:06:32.846Z,0
2023-03-02T02:07:49.137Z,0
2023-03-02T02:09:05.424Z,0
2023-03-02T02:10:21.737Z,0
2023-03-02T02:11:38.013Z,0
2023-03-02T02:12:54.329Z,0
2023-03-02T02:14:09.625Z,0
2023-03-02T02:15:25.921Z,0
2023-03-02T02:16:42.225Z,0
2023-03-02T02:17:58.523Z,0
2023-03-02T02:19:14.816Z,0
2023-03-02T02:21:47.391Z,0
2023-03-02T02:24:19.992Z,0
2023-03-02T02:25:36.294Z,0
2023-03-02T02:26:52.591Z,0
2023-03-02T02:28:08.880Z,0
2023-03-02T02:29:25.166Z,0
2023-03-02T02:30:40.479Z,0
2023-03-02T02:31:56.774Z,0
2023-03-02T02:33:13.069Z,0
2023-03-02T02:34:29.372Z,0
2023-03-02T02:35:45.661Z,0
2023-03-02T02:37:01.958Z,0
2023-03-02T02:38:18.266Z,0
2023-03-02T02:39:34.544Z,0
2023-03-02T02:40:50.841Z,0
2023-03-02T02:42:07.144Z,0
2023-03-02T02:43:23.442Z,0
2023-03-02T02:44:39.730Z,0
2023-03-02T02:45:56.030Z,0
2023-03-02T02:47:11.339Z,0
2023-03-02T02:48:27.627Z,0
2023-03-02T02:49:43.931Z,0
2023-03-02T02:51:00.226Z,0
2023-03-02T02:52:16.521Z,0
2023-03-02T02:53:32.826Z,0
2023-03-02T02:54:49.104Z,0
2023-03-02T02:56:05.414Z,0
2023-03-02T02:57:21.711Z,0
2023-03-02T02:59:54.287Z,0
2023-03-02T03:01:10.600Z,0
2023-03-02T03:02:26.882Z,0
2023-03-02T03:03:42.194Z,0
2023-03-02T03:04:58.502Z,0
2023-03-02T03:07:31.085Z,0
2023-03-02T03:08:47.370Z,0
2023-03-02T03:10:03.684Z,0
2023-03-02T03:11:19.968Z,0
2023-03-02T03:12:36.266Z,0
2023-03-02T03:13:52.568Z,0
2023-03-02T03:15:08.855Z,0
2023-03-02T03:16:25.152Z,0
2023-03-02T03:17:41.448Z,0
2023-03-02T03:18:57.731Z,0
2023-03-02T03:20:13.049Z,0
2023-03-02T03:21:29.338Z,0
2023-03-02T03:22:45.651Z,0
2023-03-02T03:24:01.943Z,0
2023-03-02T03:25:18.236Z,0
2023-03-02T03:26:34.520Z,0
2023-03-02T03:27:50.819Z,0
2023-03-02T03:29:07.124Z,0
2023-03-02T03:30:23.421Z,0
2023-03-02T03:31:39.702Z,0
2023-03-02T03:32:56.012Z,0
2023-03-02T03:34:12.308Z,0
2023-03-02T03:35:28.595Z,0
2023-03-02T03:36:43.910Z,0
2023-03-02T03:38:00.207Z,0
2023-03-02T03:39:16.505Z,0
2023-03-02T03:40:32.804Z,0
2023-03-02T03:41:49.080Z,0
2023-03-02T03:43:05.376Z,0
2023-03-02T03:44:21.673Z,0
2023-03-02T03:45:37.985Z,0
2023-03-02T03:46:54.270Z,0
2023-03-02T03:48:10.570Z,0
2023-03-02T03:49:26.859Z,0
2023-03-02T03:50:43.150Z,0
2023-03-02T03:51:59.456Z,0
2023-03-02T03:53:14.771Z,0
2023-03-02T03:54:31.057Z,0
2023-03-02T03:55:47.351Z,0
2023-03-02T03:57:03.653Z,0
2023-03-02T03:58:19.938Z,0
2023-03-02T03:59:36.246Z,0
2023-03-02T04:00:52.541Z,0
2023-03-02T04:02:08.830Z,0
2023-03-02T04:03:25.124Z,0
2023-03-02T04:04:41.433Z,0
2023-03-02T04:05:57.712Z,0
2023-03-02T04:07:14.014Z,0
2023-03-02T04:08:30.319Z,0
2023-03-02T04:09:45.614Z,0
2023-03-02T04:11:01.913Z,0
2023-03-02T04:12:18.208Z,0
2023-03-02T04:13:34.495Z,0
2023-03-02T04:14:50.808Z,0
2023-03-02T04:16:07.106Z,0
2023-03-02T04:17:23.384Z,0
2023-03-02T04:18:39.690Z,0
2023-03-02T04:19:55.984Z,0
2023-03-02T04:21:12.280Z,0
2023-03-02T04:22:28.575Z,0
2023-03-02T04:23:44.870Z,0
2023-03-02T04:25:01.162Z,0
2023-03-02T04:26:16.468Z,0
2023-03-02T04:27:32.780Z,0
2023-03-02T04:28:49.071Z,0
2023-03-02T04:31:21.648Z,0
2023-03-02T04:32:37.946Z,0
2023-03-02T04:33:54.240Z,0
2023-03-02T04:35:10.548Z,0
2023-03-02T04:36:26.849Z,0
2023-03-02T04:37:43.145Z,0
2023-03-02T04:38:59.430Z,0
2023-03-02T04:40:15.730Z,0
2023-03-02T04:41:32.015Z,0
2023-03-02T04:42:47.345Z,0
2023-03-02T04:44:03.631Z,0
2023-03-02T04:45:19.928Z,0
2023-03-02T04:46:36.221Z,0
2023-03-02T04:47:52.523Z,0
2023-03-02T04:49:08.821Z,0
2023-03-02T04:50:25.102Z,0
2023-03-02T04:51:41.398Z,0
2023-03-02T04:52:57.706Z,0
2023-03-02T04:54:14.003Z,0
2023-03-02T04:55:30.293Z,0
2023-03-02T04:56:46.592Z,0
2023-03-02T04:58:02.870Z,0
2023-03-02T04:59:18.187Z,0
2023-03-02T05:00:34.496Z,0
2023-03-02T05:01:50.786Z,0
2023-03-02T05:03:07.069Z,0
2023-03-02T05:04:23.366Z,0
2023-03-02T05:05:39.665Z,0
2023-03-02T05:06:55.959Z,0
2023-03-02T05:08:12.264Z,0
2023-03-02T05:09:28.559Z,0
2023-03-02T05:10:44.852Z,0
2023-03-02T05:12:01.136Z,0
2023-03-02T05:13:17.438Z,0
2023-03-02T05:14:33.682Z,1
2023-03-02T05:15:50.103Z,0
2023-03-02T05:17:06.404Z,0
2023-03-02T05:18:22.647Z,1
2023-03-02T05:19:38.933Z,0
2023-03-02T05:20:55.233Z,0
2023-03-02T05:22:11.537Z,0
2023-03-02T05:23:27.791Z,1
2023-03-02T05:24:44.028Z,1
2023-03-02T05:26:00.275Z,2
2023-03-02T05:27:16.523Z,2
2023-03-02T05:28:32.753Z,1
2023-03-02T05:29:48.987Z,2
2023-03-02T05:31:05.245Z,4
2023-03-02T05:32:20.496Z,4
2023-03-02T05:34:52.974Z,8
2023-03-02T05:36:09.229Z,12
2023-03-02T05:37:25.454Z,12
2023-03-02T05:39:57.945Z,18
2023-03-02T05:41:14.195Z,27
2023-03-02T05:42:30.425Z,32
2023-03-02T05:47:35.388Z,66
2023-03-02T05:48:50.661Z,78
2023-03-02T05:50:05.918Z,90
2023-03-02T05:51:22.154Z,110
2023-03-02T05:52:38.388Z,128
2023-03-02T05:53:54.636Z,143
2023-03-02T05:55:10.872Z,166
2023-03-02T05:56:27.129Z,189
2023-03-02T05:57:43.372Z,213
2023-03-02T05:58:59.598Z,237
2023-03-02T06:00:15.836Z,265
2023-03-02T06:01:32.099Z,289
2023-03-02T06:02:48.479Z,319
2023-03-02T06:04:03.726Z,350
2023-03-02T06:05:19.972Z,379
2023-03-02T06:06:36.202Z,412
2023-03-02T06:07:52.442Z,443
2023-03-02T06:10:24.936Z,512
2023-03-02T06:11:41.173Z,549
2023-03-02T06:12:57.426Z,587
2023-03-02T06:14:13.667Z,623
2023-03-02T06:15:29.900Z,657
2023-03-02T06:16:46.151Z,696
2023-03-02T06:18:02.376Z,735
2023-03-02T06:19:18.632Z,765
2023-03-02T06:20:33.892Z,793
2023-03-02T06:21:50.115Z,825
2023-03-02T06:23:06.371Z,852
2023-03-02T06:24:22.599Z,883
2023-03-02T06:25:38.839Z,910
2023-03-02T06:26:55.096Z,939
2023-03-02T06:28:11.341Z,965
2023-03-02T06:29:27.576Z,992
2023-03-02T06:30:43.820Z,1019
2023-03-02T06:32:00.064Z,1044
2023-03-02T06:33:16.302Z,1069
2023-03-02T06:34:32.536Z,1093
2023-03-02T06:35:48.776Z,1118
2023-03-02T06:37:04.033Z,1142
2023-03-02T06:38:20.285Z,1166
2023-03-02T06:39:36.518Z,1191
2023-03-02T06:40:52.754Z,1212
2023-03-02T06:42:09.002Z,1237
2023-03-02T06:43:25.238Z,1258
2023-03-02T06:44:41.485Z,1279
2023-03-02T06:45:57.725Z,1302
2023-03-02T06:48:30.215Z,1341
2023-03-02T06:49:46.439Z,1360
2023-03-02T06:51:02.700Z,1380
2023-03-02T06:52:18.928Z,1398
2023-03-02T06:53:34.195Z,1416
2023-03-02T06:54:50.429Z,1435
2023-03-02T06:56:06.681Z,1451
2023-03-02T06:57:22.908Z,1467
2023-03-02T06:58:39.147Z,1481
2023-03-02T06:59:55.388Z,1499
2023-03-02T07:01:11.635Z,1513
2023-03-02T07:03:44.130Z,1541
2023-03-02T07:05:00.366Z,1556
2023-03-02T07:06:16.595Z,1569
2023-03-02T07:07:32.839Z,1584
2023-03-02T07:08:49.093Z,1597
2023-03-02T07:10:04.332Z,1611
2023-03-02T07:11:20.577Z,1624
2023-03-02T07:12:36.822Z,1635
2023-03-02T07:13:53.075Z,1649
2023-03-02T07:15:09.315Z,1660
2023-03-02T07:16:25.543Z,1669
2023-03-02T07:17:41.780Z,1676
2023-03-02T07:18:58.021Z,1683
2023-03-02T07:20:14.274Z,1697
2023-03-02T07:21:30.504Z,1705
2023-03-02T07:22:46.754Z,1719
2023-03-02T07:24:02.998Z,1730
2023-03-02T07:25:19.232Z,1738
2023-03-02T07:26:34.489Z,1746
2023-03-02T07:27:50.743Z,1754
2023-03-02T07:29:06.968Z,1759
2023-03-02T07:30:23.218Z,1767
2023-03-02T07:31:39.462Z,1773
2023-03-02T07:32:55.691Z,1780
2023-03-02T07:34:11.933Z,1791
2023-03-02T07:35:28.194Z,1795
2023-03-02T07:36:44.415Z,1802
2023-03-02T07:38:00.669Z,1810
2023-03-02T07:39:16.898Z,1816
2023-03-02T07:40:33.143Z,1822
2023-03-02T07:41:49.390Z,1827
2023-03-02T07:43:04.638Z,1834
2023-03-02T07:44:20.884Z,1839
2023-03-02T07:45:37.119Z,1846
2023-03-02T07:46:53.360Z,1848
2023-03-02T07:48:09.617Z,1858
2023-03-02T07:49:25.845Z,1864
2023-03-02T07:50:42.090Z,1868
2023-03-02T07:51:58.335Z,1871
2023-03-02T07:53:14.584Z,1876
2023-03-02T07:54:30.823Z,1885
2023-03-02T07:55:47.053Z,1889
2023-03-02T07:57:03.295Z,1893
2023-03-02T07:58:19.534Z,1899
2023-03-02T07:59:34.790Z,1899
2023-03-02T08:00:51.031Z,1903
2023-03-02T08:02:07.272Z,1907
2023-03-02T08:03:23.515Z,1910
2023-03-02T08:04:39.763Z,1917
2023-03-02T08:05:55.993Z,1922
2023-03-02T08:07:12.238Z,1926
2023-03-02T08:08:28.490Z,1930
2023-03-02T08:09:44.719Z,1931
2023-03-02T08:11:00.973Z,1931
2023-03-02T08:12:17.203Z,1937
2023-03-02T08:13:33.445Z,1939
2023-03-02T08:14:49.693Z,1940
2023-03-02T08:16:04.934Z,1940
2023-03-02T08:17:21.184Z,1944
2023-03-02T08:18:37.399Z,1947
2023-03-02T08:19:53.643Z,1947
2023-03-02T08:21:09.881Z,1949
2023-03-02T08:22:26.122Z,1951
2023-03-02T08:23:42.360Z,1954
2023-03-02T08:24:58.608Z,1959
2023-03-02T08:26:14.837Z,1961
2023-03-02T08:27:31.078Z,1962
2023-03-02T08:28:47.317Z,1961
2023-03-02T08:30:03.563Z,1964
2023-03-02T08:31:19.804Z,1965
2023-03-02T08:32:35.068Z,1965
2023-03-02T08:35:07.549Z,1972
2023-03-02T08:36:23.786Z,1976
2023-03-02T08:37:40.024Z,1979
2023-03-02T08:38:56.274Z,1983
2023-03-02T08:40:12.502Z,1982
2023-03-02T08:41:28.750Z,1982
2023-03-02T08:42:44.990Z,1984
2023-03-02T08:44:01.246Z,1987
2023-03-02T08:45:17.475Z,1988
2023-03-02T08:46:33.721Z,1989
2023-03-02T08:47:49.948Z,1990
2023-03-02T08:49:05.220Z,1991
2023-03-02T08:50:21.456Z,1994
2023-03-02T08:52:53.945Z,1996
2023-03-02T08:54:10.170Z,2000
2023-03-02T08:55:26.425Z,2003
2023-03-02T08:56:42.656Z,1999
2023-03-02T08:57:57.929Z,2004
2023-03-02T08:59:14.153Z,2003
2023-03-02T09:00:30.409Z,2003
2023-03-02T09:01:46.640Z,2005
2023-03-02T09:03:02.881Z,2005
2023-03-02T09:04:19.134Z,2007
2023-03-02T09:05:35.361Z,2010
2023-03-02T09:06:51.612Z,2012
2023-03-02T09:08:07.847Z,2013
2023-03-02T09:09:24.094Z,2016
2023-03-02T09:10:40.340Z,2017
2023-03-02T09:11:56.574Z,2020
2023-03-02T09:13:12.822Z,2026
2023-03-02T09:14:29.047Z,2025
2023-03-02T09:15:44.299Z,2029
2023-03-02T09:17:00.554Z,2027
2023-03-02T09:18:16.799Z,2031
2023-03-02T09:19:33.031Z,2030
2023-03-02T09:20:49.276Z,2031
2023-03-02T09:22:05.505Z,2034
2023-03-02T09:23:21.746Z,2032
2023-03-02T09:24:37.985Z,2032
2023-03-02T09:25:54.236Z,2034
2023-03-02T09:27:10.487Z,2039
2023-03-02T09:28:26.727Z,2041
2023-03-02T09:29:42.955Z,2036
2023-03-02T09:30:59.207Z,2032
2023-03-02T09:32:14.458Z,2031
2023-03-02T09:33:30.703Z,2028
2023-03-02T09:34:46.934Z,2034
2023-03-02T09:36:03.178Z,2030
2023-03-02T09:37:19.412Z,2031
2023-03-02T09:38:35.665Z,2026
2023-03-02T09:39:51.904Z,2029
2023-03-02T09:41:08.000Z,2032
2023-03-02T09:42:24.379Z,2037
2023-03-02T09:43:40.618Z,2042
2023-03-02T09:44:56.864Z,2046
2023-03-02T09:46:13.100Z,2051
2023-03-02T09:47:29.337Z,2049
2023-03-02T09:48:44.614Z,2053
2023-03-02T09:51:17.077Z,2058
2023-03-02T09:52:33.316Z,2054
2023-03-02T09:53:49.567Z,2054
2023-03-02T09:55:05.804Z,2053
2023-03-02T09:56:22.038Z,2053
2023-03-02T09:57:38.285Z,2050
2023-03-02T09:58:54.520Z,2059
2023-03-02T10:00:10.771Z,2059
2023-03-02T10:01:27.022Z,2053
2023-03-02T10:02:43.248Z,2055
2023-03-02T10:03:59.502Z,2055
2023-03-02T10:06:30.992Z,2062
2023-03-02T10:07:47.237Z,2059
2023-03-02T10:09:03.461Z,2058
2023-03-02T10:10:19.703Z,2056
2023-03-02T10:11:35.963Z,2055
2023-03-02T10:12:52.192Z,2057
2023-03-02T10:14:08.426Z,2055
2023-03-02T10:15:24.681Z,2052
2023-03-02T10:16:40.926Z,2059
2023-03-02T10:17:57.161Z,2059
2023-03-02T10:19:13.402Z,2058
2023-03-02T10:20:29.635Z,2060
2023-03-02T10:21:44.895Z,2062
2023-03-02T10:23:01.135Z,2061
2023-03-02T10:24:17.371Z,2066
2023-03-02T10:25:33.609Z,2069
2023-03-02T10:26:49.851Z,2075
2023-03-02T10:28:06.096Z,2078
2023-03-02T10:29:22.333Z,2077
2023-03-02T10:30:38.580Z,2076
2023-03-02T10:31:54.820Z,2073
2023-03-02T10:33:11.060Z,2076
2023-03-02T10:34:27.295Z,2079
2023-03-02T10:35:43.542Z,2084
2023-03-02T10:36:59.782Z,2089
2023-03-02T10:38:15.000Z,2096
2023-03-02T10:39:31.276Z,2093
2023-03-02T10:40:47.525Z,2091
2023-03-02T10:42:03.773Z,2090
2023-03-02T10:43:19.994Z,2092
2023-03-02T10:44:36.255Z,2098
2023-03-02T10:45:52.479Z,2103
2023-03-02T10:47:08.730Z,2097
2023-03-02T10:48:24.968Z,2090
2023-03-02T10:49:41.212Z,2086
2023-03-02T10:52:13.680Z,2089
2023-03-02T10:53:29.939Z,2087
2023-03-02T10:54:45.180Z,2091
2023-03-02T10:56:01.434Z,2090
2023-03-02T10:57:17.656Z,2092
2023-03-02T10:59:50.143Z,2091
2023-03-02T11:01:06.399Z,2096
2023-03-02T11:02:22.619Z,2099
2023-03-02T11:03:38.863Z,2099
2023-03-02T11:04:55.114Z,2096
2023-03-02T11:06:11.349Z,2086
2023-03-02T11:08:43.827Z,2070
2023-03-02T11:09:59.091Z,2079
2023-03-02T11:11:14.356Z,2089
2023-03-02T11:12:30.585Z,2096
2023-03-02T11:15:03.067Z,2091
2023-03-02T11:16:19.320Z,2097
2023-03-02T11:17:35.556Z,2091
2023-03-02T11:18:51.802Z,2080
2023-03-02T11:20:08.033Z,2079
2023-03-02T11:22:40.527Z,2098
2023-03-02T11:23:56.766Z,2102
2023-03-02T11:25:13.005Z,2103
2023-03-02T11:26:29.389Z,2100
2023-03-02T11:27:44.643Z,2088
2023-03-02T11:29:00.879Z,2083
2023-03-02T11:30:17.119Z,2085
2023-03-02T11:31:33.356Z,2089
2023-03-02T11:32:49.596Z,2087
2023-03-02T11:34:05.841Z,2088
2023-03-02T11:35:22.078Z,2089
2023-03-02T11:37:54.577Z,2078
2023-03-02T11:39:10.816Z,2086
2023-03-02T11:40:27.053Z,2098
2023-03-02T11:41:43.291Z,2105
2023-03-02T11:42:59.526Z,2103
2023-03-02T11:44:14.778Z,2102
2023-03-02T11:45:31.034Z,2093
2023-03-02T11:46:47.263Z,2084
2023-03-02T11:48:03.498Z,2085
2023-03-02T11:49:19.748Z,2087
2023-03-02T11:50:35.978Z,2083
2023-03-02T11:51:52.223Z,2082
2023-03-02T11:53:08.461Z,2084
2023-03-02T11:54:23.733Z,2078
2023-03-02T11:55:40.095Z,2077
2023-03-02T11:56:56.327Z,2073
2023-03-02T11:58:12.578Z,2068
2023-03-02T11:59:28.822Z,2086
2023-03-02T12:00:45.061Z,2096
2023-03-02T12:02:01.303Z,2095
2023-03-02T12:03:17.529Z,2095
2023-03-02T12:04:33.779Z,2091
2023-03-02T12:05:50.027Z,2091
2023-03-02T12:07:06.261Z,2085
2023-03-02T12:08:22.645Z,2080
2023-03-02T12:09:37.907Z,2081
2023-03-02T12:10:54.135Z,2084
2023-03-02T12:12:10.376Z,2087
2023-03-02T12:13:26.626Z,2090
2023-03-02T12:15:59.095Z,2101
2023-03-02T12:17:15.346Z,2104
2023-03-02T12:18:31.590Z,2104
2023-03-02T12:19:47.833Z,2093
2023-03-02T12:21:04.058Z,2095
2023-03-02T12:22:20.306Z,2093
2023-03-02T12:23:36.543Z,2092
2023-03-02T12:24:52.784Z,2099
2023-03-02T12:26:08.034Z,2104
2023-03-02T12:27:24.292Z,2107
2023-03-02T12:28:40.520Z,2110
2023-03-02T12:29:56.762Z,2109
2023-03-02T12:31:13.000Z,2104
2023-03-02T12:32:29.237Z,2099
2023-03-02T12:33:45.481Z,2098
2023-03-02T12:35:01.734Z,2096
2023-03-02T12:36:17.965Z,2096
2023-03-02T12:37:34.212Z,2091
2023-03-02T12:38:50.440Z,2100
2023-03-02T12:40:06.683Z,2102
2023-03-02T12:41:22.924Z,2098
2023-03-02T12:42:38.181Z,2086
2023-03-02T12:43:54.416Z,2084
2023-03-02T12:45:10.657Z,2093
2023-03-02T12:46:26.917Z,2095
2023-03-02T12:47:43.146Z,2090
2023-03-02T12:48:59.393Z,2094
2023-03-02T12:50:15.619Z,2107
2023-03-02T12:51:31.868Z,2106
2023-03-02T12:52:48.111Z,2107
2023-03-02T12:54:04.355Z,2108
2023-03-02T12:55:20.585Z,2112
2023-03-02T12:56:36.844Z,2105
2023-03-02T12:57:53.079Z,2100
2023-03-02T12:59:08.325Z,2106
2023-03-02T13:00:24.578Z,2114
2023-03-02T13:01:40.816Z,2122
2023-03-02T13:02:57.055Z,2122
2023-03-02T13:04:13.288Z,2126
2023-03-02T13:05:29.543Z,2119
2023-03-02T13:06:45.768Z,2114
2023-03-02T13:08:02.016Z,2112
2023-03-02T13:09:18.262Z,2115
2023-03-02T13:10:34.504Z,2119
2023-03-02T13:11:50.726Z,2123
2023-03-02T13:13:05.995Z,2120
2023-03-02T13:14:22.246Z,2118
2023-03-02T13:15:38.472Z,2114
2023-03-02T13:16:54.714Z,2114
2023-03-02T13:18:10.953Z,2116
2023-03-02T13:19:27.198Z,2119
2023-03-02T13:20:43.439Z,2125
2023-03-02T13:21:59.677Z,2127
2023-03-02T13:24:32.169Z,2123
2023-03-02T13:25:48.400Z,2120
2023-03-02T13:27:04.649Z,2116
2023-03-02T13:28:20.875Z,2111
2023-03-02T13:29:36.144Z,2107
2023-03-02T13:30:52.385Z,2106
2023-03-02T13:32:08.616Z,2108
2023-03-02T13:33:24.858Z,2109
2023-03-02T13:34:41.105Z,2104
2023-03-02T13:35:57.338Z,2099
2023-03-02T13:37:13.597Z,2096
2023-03-02T13:38:29.821Z,2095
2023-03-02T13:39:46.061Z,2095
2023-03-02T13:41:02.305Z,2096
2023-03-02T13:42:18.538Z,2097
2023-03-02T13:43:34.791Z,2101
2023-03-02T13:44:51.035Z,2101
2023-03-02T13:46:06.285Z,2100
2023-03-02T13:47:22.521Z,2095
2023-03-02T13:48:38.766Z,2095
2023-03-02T13:49:54.998Z,2095
2023-03-02T13:51:11.248Z,2099
2023-03-02T13:52:27.489Z,2099
2023-03-02T13:53:43.736Z,2094
2023-03-02T13:54:59.965Z,2090
2023-03-02T13:56:16.205Z,2088
2023-03-02T13:57:32.448Z,2084
2023-03-02T13:58:48.697Z,2086
2023-03-02T14:00:04.932Z,2086
2023-03-02T14:01:21.176Z,2089
2023-03-02T14:02:37.416Z,2085
2023-03-02T14:03:52.673Z,2085
2023-03-02T14:05:08.915Z,2084
2023-03-02T14:06:25.156Z,2081
2023-03-02T14:07:41.383Z,2077
2023-03-02T14:08:57.635Z,2080
2023-03-02T14:10:13.868Z,2079
2023-03-02T14:11:30.102Z,2087
2023-03-02T14:12:46.344Z,2085
2023-03-02T14:14:02.602Z,2080
2023-03-02T14:15:18.832Z,2073
2023-03-02T14:16:35.067Z,2071
2023-03-02T14:17:51.310Z,2074
2023-03-02T14:19:07.545Z,2071
2023-03-02T14:20:23.786Z,2073
2023-03-02T14:21:39.055Z,2070
2023-03-02T14:22:55.300Z,2063
2023-03-02T14:24:11.521Z,2054
2023-03-02T14:25:27.777Z,2048
2023-03-02T14:26:44.000Z,2041
2023-03-02T14:28:00.248Z,2034
2023-03-02T14:29:16.494Z,2037
2023-03-02T14:30:32.729Z,2037
2023-03-02T14:33:05.206Z,2021
2023-03-02T14:34:21.462Z,2014
2023-03-02T14:35:37.701Z,2009
2023-03-02T14:36:53.942Z,2004
2023-03-02T14:38:09.185Z,2005
2023-03-02T14:39:25.427Z,2005
2023-03-02T14:40:41.668Z,2001
2023-03-02T14:41:57.919Z,1998
2023-03-02T14:43:14.145Z,1999
2023-03-02T14:44:30.387Z,1998
2023-03-02T14:45:46.638Z,1996
2023-03-02T14:47:02.874Z,1996
2023-03-02T14:48:19.114Z,1985
2023-03-02T14:50:51.585Z,1976
2023-03-02T14:52:07.831Z,1968
2023-03-02T14:53:24.076Z,1962
2023-03-02T14:54:39.328Z,1957
2023-03-02T14:55:55.566Z,1952
2023-03-02T14:57:11.802Z,1944
2023-03-02T14:58:28.059Z,1938
2023-03-02T14:59:44.299Z,1929
2023-03-02T15:01:00.523Z,1923
2023-03-02T15:02:16.762Z,1916
2023-03-02T15:03:33.003Z,1906
2023-03-02T15:04:49.258Z,1904
2023-03-02T15:06:05.482Z,1894
2023-03-02T15:07:21.737Z,1880
2023-03-02T15:08:37.964Z,1868
2023-03-02T15:09:54.207Z,1861
2023-03-02T15:11:10.457Z,1855
2023-03-02T15:12:25.712Z,1844
2023-03-02T15:13:41.946Z,1831
2023-03-02T15:14:58.193Z,1821
2023-03-02T15:16:14.426Z,1806
2023-03-02T15:17:30.673Z,1795
2023-03-02T15:18:46.916Z,1785
2023-03-02T15:20:03.149Z,1776
2023-03-02T15:21:19.382Z,1771
2023-03-02T15:22:35.629Z,1761
2023-03-02T15:23:51.865Z,1755
2023-03-02T15:25:08.102Z,1743
2023-03-02T15:26:24.353Z,1735
2023-03-02T15:27:40.589Z,1725
2023-03-02T15:28:55.847Z,1715
2023-03-02T15:30:12.088Z,1703
2023-03-02T15:31:28.337Z,1693
2023-03-02T15:34:00.806Z,1669
2023-03-02T15:35:17.050Z,1655
2023-03-02T15:36:33.295Z,1636
2023-03-02T15:37:49.534Z,1625
2023-03-02T15:39:05.782Z,1609
2023-03-02T15:41:38.248Z,1593
2023-03-02T15:42:54.489Z,1582
2023-03-02T15:44:10.738Z,1567
2023-03-02T15:45:27.090Z,1552
2023-03-02T15:46:43.344Z,1534
2023-03-02T15:49:15.823Z,1513
2023-03-02T15:50:31.071Z,1499
2023-03-02T15:51:46.343Z,1485
2023-03-02T15:53:02.577Z,1468
2023-03-02T15:54:18.810Z,1452
2023-03-02T15:55:35.052Z,1436
2023-03-02T15:56:51.291Z,1417
2023-03-02T15:58:07.550Z,1395
2023-03-02T15:59:23.787Z,1374
2023-03-02T16:00:40.020Z,1346
2023-03-02T16:01:56.257Z,1327
2023-03-02T16:03:12.506Z,1307
2023-03-02T16:04:27.756Z,1285
2023-03-02T16:05:44.121Z,1259
2023-03-02T16:07:00.371Z,1233
2023-03-02T16:08:16.608Z,1209
2023-03-02T16:09:32.859Z,1185
2023-03-02T16:10:49.087Z,1158
2023-03-02T16:12:05.327Z,1133
2023-03-02T16:13:21.565Z,1103
2023-03-02T16:14:37.810Z,1074
2023-03-02T16:15:54.047Z,1046
2023-03-02T16:17:10.295Z,1020
2023-03-02T16:18:26.530Z,990
2023-03-02T16:19:42.772Z,961
2023-03-02T16:20:59.024Z,932
2023-03-02T16:22:14.272Z,905
2023-03-02T16:23:30.505Z,877
2023-03-02T16:24:46.758Z,845
2023-03-02T16:26:03.004Z,816
2023-03-02T16:27:19.234Z,784
2023-03-02T16:28:35.467Z,756
2023-03-02T16:29:51.708Z,723
2023-03-02T16:31:07.956Z,691
2023-03-02T16:32:24.192Z,659
2023-03-02T16:33:40.433Z,626
2023-03-02T16:34:56.669Z,593
2023-03-02T16:36:12.909Z,562
2023-03-02T16:37:29.169Z,527
2023-03-02T16:38:44.423Z,493
2023-03-02T16:40:00.648Z,463
2023-03-02T16:41:16.891Z,426
2023-03-02T16:42:33.133Z,394
2023-03-02T16:43:49.376Z,363
2023-03-02T16:45:05.612Z,331
2023-03-02T16:46:21.862Z,302
2023-03-02T16:47:38.105Z,271
2023-03-02T16:48:54.337Z,248
2023-03-02T16:50:10.580Z,227
2023-03-02T16:52:43.074Z,178
2023-03-02T16:53:59.294Z,159
2023-03-02T16:55:14.559Z,138
2023-03-02T16:56:30.812Z,122
2023-03-02T16:57:47.033Z,109
2023-03-02T16:59:03.290Z,96
2023-03-02T17:00:19.526Z,78
2023-03-02T17:01:35.768Z,68
2023-03-02T17:02:52.000Z,54
2023-03-02T17:04:08.248Z,48
2023-03-02T17:05:24.476Z,39
2023-03-02T17:06:40.730Z,31
2023-03-02T17:07:56.961Z,25
2023-03-02T17:09:13.206Z,20
2023-03-02T17:10:29.454Z,14
2023-03-02T17:13:00.948Z,12
2023-03-02T17:14:17.184Z,9
2023-03-02T17:15:33.423Z,5
2023-03-02T17:16:49.659Z,6
2023-03-02T17:18:05.902Z,5
2023-03-02T17:19:22.153Z,2
2023-03-02T17:20:38.380Z,1
2023-03-02T17:21:54.639Z,2
2023-03-02T17:23:10.875Z,2
2023-03-02T17:24:27.116Z,1
2023-03-02T17:25:43.359Z,1
2023-03-02T17:28:15.826Z,1
2023-03-02T17:29:31.160Z,0
2023-03-02T17:30:47.442Z,0
2023-03-02T17:32:03.730Z,0
2023-03-02T17:33:20.034Z,0
2023-03-02T17:34:36.334Z,0
2023-03-02T17:35:52.620Z,0
2023-03-02T17:37:08.909Z,0
2023-03-02T17:38:25.216Z,0
2023-03-02T17:39:41.500Z,0
2023-03-02T17:40:57.809Z,0
2023-03-02T17:42:14.096Z,0
2023-03-02T17:43:30.381Z,0
2023-03-02T17:44:46.681Z,0
2023-03-02T17:46:01.995Z,0
2023-03-02T17:47:18.298Z,0
2023-03-02T17:48:34.588Z,0
2023-03-02T17:49:50.884Z,0
2023-03-02T17:51:07.182Z,0
2023-03-02T17:52:23.464Z,0
2023-03-02T17:53:39.756Z,0
2023-03-02T17:54:56.050Z,0
2023-03-02T17:56:12.344Z,0
2023-03-02T17:57:28.649Z,0
2023-03-02T17:58:44.942Z,0
2023-03-02T18:00:01.233Z,0
2023-03-02T18:01:17.532Z,0
2023-03-02T18:02:32.833Z,0
2023-03-02T18:03:49.144Z,0
2023-03-02T18:06:21.726Z,0
2023-03-02T18:07:38.027Z,0
2023-03-02T18:08:54.325Z,0
2023-03-02T18:10:10.602Z,0
2023-03-02T18:11:26.909Z,0
2023-03-02T18:13:59.488Z,0
2023-03-02T18:15:15.789Z,0
2023-03-02T18:16:32.096Z,0
2023-03-02T18:17:48.390Z,0
2023-03-02T18:19:03.682Z,0
2023-03-02T18:20:19.979Z,0
2023-03-02T18:21:36.279Z,0
2023-03-02T18:22:52.566Z,0
2023-03-02T18:24:08.877Z,0
2023-03-02T18:25:25.161Z,0
2023-03-02T18:26:41.463Z,0
2023-03-02T18:27:57.758Z,0
2023-03-02T18:29:14.055Z,0